Time;durP1;ratioP1;P1;durP2;ratioP2;P2;SDS_P1;SDS_P2;PMS_P1;PMS_P2;Temp;Humidity;BMP_temperature;BMP_pressure;BME280_temperature;BME280_humidity;BME280_pressure;Samples;Min_cycle;Max_cycle;Signal;HPM_P1;HPM_P2
2023/04/03 00:01:42;;;;;;;3.80;1.32;;;;;;;0.91;64.00;100874.95;1802006;78;20970;-66
2023/04/03 00:04:09;;;;;;;3.95;1.30;;;;;;;0.94;63.90;100874.55;1801544;78;20942;-67
2023/04/03 00:06:35;;;;;;;3.65;1.10;;;;;;;1.01;63.91;100880.61;1798305;78;21130;-66
2023/04/03 00:09:02;;;;;;;6.90;1.62;;;;;;;1.05;63.90;100870.38;1801935;78;21241;-66
2023/04/03 00:11:28;;;;;;;3.87;1.23;;;;;;;1.11;64.11;100878.14;1797406;78;20962;-66
2023/04/03 00:13:54;;;;;;;5.83;1.45;;;;;;;1.16;63.90;100879.48;1798871;78;21869;-67
2023/04/03 00:16:21;;;;;;;5.67;1.70;;;;;;;1.20;64.01;100885.09;1798817;78;21737;-67
2023/04/03 00:18:47;;;;;;;6.10;1.98;;;;;;;1.21;64.05;100880.83;1798282;78;21442;-66
2023/04/03 00:21:15;;;;;;;3.47;1.10;;;;;;;1.23;64.04;100881.68;1800920;78;20899;-67
2023/04/03 00:23:41;;;;;;;3.58;1.00;;;;;;;1.17;63.96;100881.63;1800047;78;21014;-66
2023/04/03 00:26:08;;;;;;;5.28;1.10;;;;;;;1.19;64.24;100882.52;1799914;78;21005;-66
2023/04/03 00:28:34;;;;;;;5.78;1.45;;;;;;;1.22;64.21;100874.39;1800240;78;21009;-66
2023/04/03 00:31:00;;;;;;;4.67;1.50;;;;;;;1.23;64.13;100879.11;1799059;78;20969;-66
2023/04/03 00:33:27;;;;;;;3.98;1.72;;;;;;;1.26;64.02;100881.70;1803629;78;20986;-66
2023/04/03 00:35:53;;;;;;;2.33;1.10;;;;;;;1.19;64.02;100879.94;1801453;78;21002;-66
2023/04/03 00:38:20;;;;;;;4.70;1.10;;;;;;;1.09;63.85;100882.44;1798344;78;20959;-66
2023/04/03 00:40:48;;;;;;;4.50;1.10;;;;;;;1.03;63.98;100880.20;1792691;78;21056;-66
2023/04/03 00:43:24;;;;;;;2.55;1.27;;;;;;;0.97;63.97;100879.72;1794733;78;21061;-63
2023/04/03 00:45:52;;;;;;;3.47;0.90;;;;;;;0.86;63.81;100882.60;1801822;78;20990;-63
2023/04/03 00:48:22;;;;;;;3.47;0.93;;;;;;;0.75;63.78;100885.47;1797147;78;20899;-64
2023/04/03 00:50:50;;;;;;;3.33;0.90;;;;;;;0.63;63.66;100883.20;1792884;78;20969;-64
2023/04/03 00:53:20;;;;;;;2.87;0.90;;;;;;;0.59;63.69;100881.45;1793206;78;21029;-64
2023/04/03 00:55:49;;;;;;;3.70;1.27;;;;;;;0.57;63.86;100889.56;1770325;79;21015;-65
2023/04/03 00:58:19;;;;;;;3.92;2.10;;;;;;;0.62;63.91;100881.49;1774504;79;21092;-64
2023/04/03 01:00:49;;;;;;;3.62;1.47;;;;;;;0.69;64.03;100882.41;1776341;79;21699;-64
2023/04/03 01:03:15;;;;;;;2.27;0.82;;;;;;;0.80;64.13;100882.11;1774497;79;21077;-64
2023/04/03 01:05:41;;;;;;;5.85;1.47;;;;;;;0.92;64.17;100881.37;1779905;79;21084;-63
2023/04/03 01:08:08;;;;;;;4.33;1.50;;;;;;;1.01;64.16;100886.64;1775871;79;21754;-64
2023/04/03 01:10:35;;;;;;;1.75;1.07;;;;;;;1.05;63.81;100883.23;1774225;78;21036;-64
2023/04/03 01:13:01;;;;;;;4.78;1.12;;;;;;;1.06;64.02;100884.09;1775060;79;21119;-64
2023/04/03 01:15:34;;;;;;;3.40;1.50;;;;;;;1.05;63.73;100887.09;1773629;79;20918;-63
2023/04/03 01:18:00;;;;;;;3.85;1.25;;;;;;;1.08;63.98;100896.12;1775481;79;21123;-64
2023/04/03 01:20:36;;;;;;;2.83;1.10;;;;;;;1.17;63.97;100894.49;1776004;79;21559;-64
2023/04/03 01:23:11;;;;;;;4.40;1.17;;;;;;;1.25;63.99;100890.29;1747325;80;20909;-64
2023/04/03 01:25:41;;;;;;;5.35;1.30;;;;;;;1.31;63.81;100890.34;1773942;79;21008;-64
2023/04/03 01:28:13;;;;;;;2.42;0.75;;;;;;;1.35;63.66;100886.96;1770659;79;21130;-65
2023/04/03 01:30:52;;;;;;;2.42;0.80;;;;;;;1.42;63.59;100893.87;1778727;79;21074;-64
2023/04/03 01:33:19;;;;;;;3.20;1.05;;;;;;;1.34;62.97;100882.64;1780901;79;21111;-64
2023/04/03 01:35:46;;;;;;;2.67;0.88;;;;;;;1.31;62.85;100885.19;1778565;79;21017;-64
2023/04/03 01:38:12;;;;;;;4.95;1.25;;;;;;;1.31;63.12;100887.77;1774584;79;20937;-64
2023/04/03 01:40:38;;;;;;;2.27;0.90;;;;;;;1.35;63.36;100881.81;1769321;79;21468;-65
2023/04/03 01:43:04;;;;;;;4.70;0.72;;;;;;;1.33;62.95;100889.50;1776161;79;21065;-63
2023/04/03 01:45:33;;;;;;;2.98;1.05;;;;;;;1.25;62.98;100886.42;1773268;79;20957;-64
2023/04/03 01:47:59;;;;;;;4.45;0.75;;;;;;;1.27;63.33;100888.59;1770857;79;21509;-64
2023/04/03 01:50:25;;;;;;;4.78;1.92;;;;;;;1.34;63.06;100892.94;1777098;79;21577;-65
2023/04/03 01:52:51;;;;;;;2.77;1.22;;;;;;;1.38;63.11;100889.56;1799270;78;21010;-64
2023/04/03 01:55:18;;;;;;;1.70;0.78;;;;;;;1.42;63.16;100885.30;1803525;78;21101;-64
2023/04/03 01:57:44;;;;;;;2.65;0.95;;;;;;;1.42;63.13;100886.15;1800005;78;21020;-64
2023/04/03 02:00:12;;;;;;;3.05;0.90;;;;;;;1.41;63.26;100890.87;1801215;78;21924;-64
2023/04/03 02:02:39;;;;;;;2.00;0.90;;;;;;;1.45;63.15;100888.74;1799987;78;20950;-64
2023/04/03 02:05:07;;;;;;;1.98;0.80;;;;;;;1.45;63.13;100891.32;1798638;78;21032;-64
2023/04/03 02:07:33;;;;;;;4.10;0.65;;;;;;;1.40;62.95;100894.30;1797492;78;20982;-64
2023/04/03 02:10:00;;;;;;;1.50;0.62;;;;;;;1.30;62.77;100896.34;1799467;78;21050;-64
2023/04/03 02:12:28;;;;;;;3.07;1.20;;;;;;;1.14;62.86;100894.47;1796871;78;21009;-64
2023/04/03 02:14:54;;;;;;;3.52;1.00;;;;;;;1.14;63.11;100904.76;1798347;78;20958;-64
2023/04/03 02:17:20;;;;;;;2.22;0.65;;;;;;;1.16;62.83;100905.64;1802890;78;21028;-64
2023/04/03 02:19:47;;;;;;;2.10;0.95;;;;;;;1.15;62.56;100899.64;1798194;78;20958;-65
2023/04/03 02:22:13;;;;;;;1.67;1.00;;;;;;;1.11;62.90;100907.73;1801350;78;21564;-63
2023/04/03 02:24:40;;;;;;;2.27;0.85;;;;;;;1.10;62.76;100902.16;1798478;78;21492;-64
2023/04/03 02:27:08;;;;;;;2.15;1.10;;;;;;;1.15;62.74;100898.75;1795143;78;21536;-66
2023/04/03 02:29:34;;;;;;;2.67;0.80;;;;;;;1.17;62.82;100894.49;1795193;78;21034;-67
2023/04/03 02:32:00;;;;;;;4.05;1.12;;;;;;;1.12;62.09;100900.87;1798425;78;20978;-66
2023/04/03 02:34:26;;;;;;;1.80;1.10;;;;;;;1.16;62.42;100900.50;1798121;78;20974;-67
2023/04/03 02:36:54;;;;;;;4.35;0.90;;;;;;;1.20;62.63;100903.09;1800067;78;21506;-66
2023/04/03 02:39:20;;;;;;;;;;;;;;;1.19;62.09;100908.25;1801871;78;20950;-67
2023/04/03 02:41:47;;;;;;;4.03;0.90;;;;;;;1.15;62.24;100911.61;1800932;78;20161;-67
2023/04/03 02:44:13;;;;;;;2.35;1.05;;;;;;;1.14;62.49;100906.05;1798738;78;20955;-67
2023/04/03 02:46:40;;;;;;;4.97;1.20;;;;;;;1.15;62.48;100909.05;1795717;78;21060;-66
2023/04/03 02:49:06;;;;;;;3.35;1.00;;;;;;;1.17;62.29;100904.78;1794524;78;21080;-68
2023/04/03 02:51:32;;;;;;;4.25;1.02;;;;;;;1.20;62.33;100917.67;1769852;79;21545;-66
2023/04/03 02:53:58;;;;;;;2.85;1.05;;;;;;;1.14;62.02;100909.91;1775695;79;20986;-66
2023/04/03 02:56:26;;;;;;;2.75;1.02;;;;;;;1.05;62.06;100920.53;1776033;79;20973;-66
2023/04/03 02:58:53;;;;;;;2.98;0.88;;;;;;;1.11;62.35;100916.73;1773124;79;21540;-67
2023/04/03 03:01:19;;;;;;;2.15;0.90;;;;;;;1.15;62.01;100912.91;1769513;79;21518;-67
2023/04/03 03:03:45;;;;;;;1.52;0.90;;;;;;;1.09;62.17;100921.02;1780439;79;21587;-67
2023/04/03 03:06:17;;;;;;;2.08;1.12;;;;;;;1.10;61.93;100916.30;1770205;79;21521;-66
2023/04/03 03:08:43;;;;;;;3.42;1.07;;;;;;;1.14;62.15;100914.61;1766718;79;21007;-67
2023/04/03 03:11:10;;;;;;;1.77;0.78;;;;;;;1.16;61.71;100915.94;1772414;79;20990;-66
2023/04/03 03:13:37;;;;;;;3.60;1.02;;;;;;;1.12;61.92;100926.59;1768066;79;21061;-66
2023/04/03 03:16:04;;;;;;;4.20;1.00;;;;;;;1.10;61.41;100926.59;1738253;81;21500;-66
2023/04/03 03:18:35;;;;;;;5.55;1.45;;;;;;;1.04;61.64;100927.81;1734267;81;21092;-67
2023/04/03 03:21:00;;;;;;;2.05;0.88;;;;;;;1.05;61.82;100928.67;1731986;81;21021;-66
2023/04/03 03:23:28;;;;;;;1.42;0.80;;;;;;;1.03;61.52;100931.22;1765981;79;21544;-67
2023/04/03 03:26:06;;;;;;;5.33;1.00;;;;;;;1.02;61.30;100929.50;1760062;79;21034;-66
2023/04/03 03:28:35;;;;;;;1.92;1.00;;;;;;;1.05;61.45;100928.25;1772823;79;21101;-66
2023/04/03 03:31:03;;;;;;;3.52;0.78;;;;;;;1.10;61.54;100926.59;1776786;79;20961;-67
2023/04/03 03:33:29;;;;;;;1.62;0.85;;;;;;;1.14;60.46;100931.77;1774888;79;20978;-66
2023/04/03 03:35:56;;;;;;;3.65;0.85;;;;;;;1.14;60.93;100938.20;1771545;79;21005;-66
2023/04/03 03:38:24;;;;;;;3.52;0.90;;;;;;;1.09;60.72;100933.88;1774439;79;20978;-66
2023/04/03 03:40:51;;;;;;;2.62;0.68;;;;;;;1.10;60.78;100928.31;1768371;80;21064;-66
2023/04/03 03:43:18;;;;;;;1.72;0.90;;;;;;;1.16;61.08;100936.52;1770200;79;20985;-66
2023/04/03 03:45:46;;;;;;;3.67;0.93;;;;;;;1.20;61.16;100939.11;1770715;79;21074;-66
2023/04/03 03:48:12;;;;;;;1.98;0.93;;;;;;;1.25;61.02;100927.59;1771924;79;20990;-66
2023/04/03 03:50:39;;;;;;;2.70;0.85;;;;;;;1.24;60.52;100931.88;1749121;80;20955;-67
2023/04/03 03:53:05;;;;;;;5.12;0.78;;;;;;;1.23;60.43;100935.31;1728346;81;21043;-67
2023/04/03 03:55:31;;;;;;;3.30;1.40;;;;;;;1.25;60.65;100945.61;1781826;79;21069;-67
2023/04/03 03:58:00;;;;;;;2.30;0.75;;;;;;;1.17;60.30;100943.38;1759054;79;21068;-67
2023/04/03 04:00:27;;;;;;;;;;;;;;;1.10;60.40;100944.60;1787098;79;21492;-66
2023/04/03 04:02:53;;;;;;;3.65;0.98;;;;;;;1.13;60.53;100945.06;1780934;79;20108;-67
2023/04/03 04:05:19;;;;;;;2.17;0.80;;;;;;;1.09;59.69;100948.42;1783682;80;20974;-67
2023/04/03 04:07:45;;;;;;;3.98;1.00;;;;;;;0.95;59.93;100952.13;1782437;79;21041;-66
2023/04/03 04:10:13;;;;;;;1.90;0.85;;;;;;;0.92;60.43;100954.66;1779335;80;21028;-67
2023/04/03 04:12:39;;;;;;;;;;;;;;;0.98;59.74;100952.19;1784369;79;20907;-66
2023/04/03 04:15:07;;;;;;;1.82;0.95;;;;;;;1.00;58.98;100962.05;1780849;79;20212;-66
2023/04/03 04:17:35;;;;;;;2.15;0.80;;;;;;;0.91;59.19;100954.23;1784298;79;21044;-66
2023/04/03 04:20:04;;;;;;;2.30;0.90;;;;;;;0.93;59.93;100965.41;1784277;80;20918;-66
2023/04/03 04:22:31;;;;;;;5.00;1.20;;;;;;;0.87;59.88;100955.06;1782993;79;21012;-66
2023/04/03 04:24:57;;;;;;;4.37;1.00;;;;;;;0.78;58.80;100954.92;1783175;79;21030;-67
2023/04/03 04:27:29;;;;;;;1.17;0.70;;;;;;;0.72;59.04;100961.28;1785180;80;20939;-66
2023/04/03 04:29:53;;;;;;;2.65;1.02;;;;;;;0.62;59.71;100961.17;1781622;80;21115;-66
2023/04/03 04:32:22;;;;;;;1.52;0.72;;;;;;;0.60;59.55;100961.56;1782666;80;20934;-66
2023/04/03 04:34:48;;;;;;;1.55;0.80;;;;;;;0.66;58.83;100965.49;1782155;79;21070;-66
2023/04/03 04:37:14;;;;;;;3.67;0.90;;;;;;;0.68;59.38;100968.53;1785746;79;21006;-66
2023/04/03 04:39:41;;;;;;;2.00;0.90;;;;;;;0.73;59.38;100963.00;1786594;79;21525;-66
2023/04/03 04:42:12;;;;;;;4.35;1.20;;;;;;;0.74;58.93;100963.45;1779326;79;20959;-66
2023/04/03 04:44:37;;;;;;;2.83;0.95;;;;;;;0.82;59.48;100969.56;1752159;79;21030;-67
2023/04/03 04:47:06;;;;;;;4.10;0.90;;;;;;;0.88;59.21;100969.20;1753286;79;21587;-68
2023/04/03 04:49:36;;;;;;;4.03;1.00;;;;;;;0.91;59.04;100963.23;1774670;79;21057;-68
2023/04/03 04:52:02;;;;;;;2.00;0.90;;;;;;;0.91;59.14;100972.23;1761047;80;22008;-68
2023/04/03 04:54:28;;;;;;;1.98;0.70;;;;;;;0.98;58.53;100981.77;1760094;80;21019;-68
2023/04/03 04:57:00;;;;;;;1.45;0.70;;;;;;;1.03;58.92;100971.52;1763228;80;20952;-69
2023/04/03 04:59:27;;;;;;;5.97;1.20;;;;;;;1.14;58.84;100974.21;1760371;80;20988;-70
2023/04/03 05:01:57;;;;;;;1.87;0.80;;;;;;;1.18;58.90;100981.14;1764367;80;21611;-70
2023/04/03 05:04:27;;;;;;;1.70;0.50;;;;;;;1.26;59.02;100988.48;1763042;80;21090;-69
2023/04/03 05:06:51;;;;;;;2.40;0.93;;;;;;;1.20;58.03;100983.28;1763694;80;21105;-70
2023/04/03 05:09:18;;;;;;;4.80;0.98;;;;;;;1.08;58.37;100982.30;1760486;80;21015;-70
2023/04/03 05:11:52;;;;;;;1.72;0.60;;;;;;;1.03;59.01;100989.09;1765170;80;21041;-69
2023/04/03 05:14:21;;;;;;;3.72;1.20;;;;;;;0.93;57.53;100980.84;1766245;80;20946;-67
2023/04/03 05:16:53;;;;;;;2.22;0.95;;;;;;;0.91;58.93;100985.09;1752980;81;21047;-67
2023/04/03 05:19:18;;;;;;;2.65;0.78;;;;;;;0.98;59.13;100986.91;1739321;81;21008;-69
2023/04/03 05:21:51;;;;;;;3.12;1.10;;;;;;;0.98;58.93;100994.62;1735428;81;21587;-67
2023/04/03 05:24:17;;;;;;;3.75;1.15;;;;;;;1.05;58.96;100995.12;1723271;81;21046;-67
2023/04/03 05:26:45;;;;;;;1.75;0.57;;;;;;;1.10;58.80;100996.47;1720668;81;21069;-66
2023/04/03 05:29:13;;;;;;;1.35;0.62;;;;;;;1.16;59.25;100998.26;1750378;80;21027;-67
2023/04/03 05:31:40;;;;;;;4.45;1.20;;;;;;;1.22;59.08;100991.45;1756274;81;20959;-67
2023/04/03 05:34:06;;;;;;;1.52;1.02;;;;;;;1.29;58.94;101000.98;1752553;81;21046;-66
2023/04/03 05:36:32;;;;;;;5.47;1.20;;;;;;;1.33;59.09;100989.86;1754033;80;20963;-66
2023/04/03 05:39:00;;;;;;;3.08;0.95;;;;;;;1.47;59.59;100992.58;1746028;81;21102;-66
2023/04/03 05:41:27;;;;;;;1.90;0.95;;;;;;;1.64;59.25;100997.05;1752837;80;21024;-66
2023/04/03 05:43:55;;;;;;;3.62;1.00;;;;;;;1.80;59.25;100993.77;1751311;80;20991;-66
2023/04/03 05:46:22;;;;;;;4.50;0.90;;;;;;;1.95;59.51;100991.30;1756303;80;22304;-65
2023/04/03 05:48:52;;;;;;;2.67;0.80;;;;;;;2.09;59.48;100991.84;1749696;80;20971;-65
2023/04/03 05:51:25;;;;;;;3.25;0.70;;;;;;;2.26;59.51;100999.27;1787174;78;20981;-65
2023/04/03 05:54:19;;;;;;;4.60;0.90;;;;;;;2.38;59.24;100989.06;1796187;79;21007;-66
2023/04/03 05:56:50;;;;;;;2.87;1.00;;;;;;;2.35;59.24;101000.65;1730861;81;21066;-66
2023/04/03 05:59:16;;;;;;;3.15;1.00;;;;;;;2.39;59.75;100998.94;1724644;81;21012;-66
2023/04/03 06:01:44;;;;;;;2.85;0.95;;;;;;;2.68;59.62;101005.55;1736788;81;21006;-67
2023/04/03 06:04:12;;;;;;;3.00;0.72;;;;;;;2.88;58.07;100996.19;1737292;81;21520;-65
2023/04/03 06:06:46;;;;;;;3.33;1.12;;;;;;;2.93;57.97;101001.81;1735133;81;21034;-66
2023/04/03 06:09:16;;;;;;;5.25;1.02;;;;;;;2.78;57.89;101006.05;1713661;81;21141;-66
2023/04/03 06:11:43;;;;;;;2.17;0.90;;;;;;;2.68;58.08;101000.39;1740138;81;21575;-65
2023/04/03 06:14:11;;;;;;;4.10;1.05;;;;;;;2.71;59.07;101002.98;1732751;81;21439;-64
2023/04/03 06:16:40;;;;;;;2.45;0.88;;;;;;;3.02;58.12;101009.15;1711152;81;20955;-65
2023/04/03 06:19:10;;;;;;;1.98;0.80;;;;;;;3.13;58.97;101002.74;1670229;83;21208;-63
2023/04/03 06:21:42;;;;;;;4.08;0.72;;;;;;;3.40;58.77;100999.83;1681441;83;20942;-64
2023/04/03 06:24:11;;;;;;;2.77;0.70;;;;;;;3.46;56.55;101007.59;1673232;82;21156;-64
2023/04/03 06:26:37;;;;;;;2.58;0.80;;;;;;;3.46;57.14;101005.00;1700595;82;21015;-64
2023/04/03 06:29:05;;;;;;;2.80;1.15;;;;;;;3.55;57.60;101010.18;1730539;82;20969;-66
2023/04/03 06:31:33;;;;;;;2.00;0.80;;;;;;;3.81;57.86;101018.84;1744891;81;20975;-67
2023/04/03 06:34:01;;;;;;;3.10;0.70;;;;;;;3.81;57.71;101024.02;1730417;79;21666;-65
2023/04/03 06:36:29;;;;;;;3.15;1.40;;;;;;;3.73;56.74;101030.89;1768951;80;21551;-64
2023/04/03 06:38:56;;;;;;;2.77;1.00;;;;;;;3.59;55.27;101022.26;1793382;78;21001;-66
2023/04/03 06:41:22;;;;;;;3.22;0.82;;;;;;;3.59;56.65;101032.59;1794667;80;20958;-66
2023/04/03 06:43:49;;;;;;;4.90;1.07;;;;;;;3.88;56.87;101030.04;1796023;78;21051;-65
2023/04/03 06:46:21;;;;;;;1.75;0.68;;;;;;;4.38;58.03;101036.09;1793691;78;21603;-66
2023/04/03 06:48:49;;;;;;;1.72;0.70;;;;;;;4.55;56.26;101029.16;1797852;78;21076;-67
2023/04/03 06:51:25;;;;;;;4.87;1.05;;;;;;;4.35;55.46;101033.06;1792159;79;21457;-66
2023/04/03 06:53:55;;;;;;;2.72;0.80;;;;;;;4.32;55.30;101033.52;1785128;79;21616;-67
2023/04/03 06:56:22;;;;;;;2.90;1.00;;;;;;;4.33;54.86;101044.27;1785723;79;21504;-66
2023/04/03 06:58:50;;;;;;;1.42;0.80;;;;;;;4.62;54.33;101038.65;1782081;79;21018;-66
2023/04/03 07:01:19;;;;;;;4.87;0.98;;;;;;;4.54;55.14;101053.32;1781657;79;21073;-66
2023/04/03 07:03:48;;;;;;;3.08;0.93;;;;;;;4.58;53.73;101039.50;1784724;79;20943;-68
2023/04/03 07:06:26;;;;;;;1.20;0.75;;;;;;;4.59;53.80;101042.94;1783888;79;21110;-66
2023/04/03 07:08:55;;;;;;;2.02;0.70;;;;;;;4.56;53.29;101064.50;1787719;79;21017;-66
2023/04/03 07:11:18;;;;;;;2.70;0.70;;;;;;;4.50;54.35;101061.92;1778983;79;21018;-63
2023/04/03 07:13:46;;;;;;;2.17;0.93;;;;;;;4.75;54.26;101059.31;1782896;79;20990;-67
2023/04/03 07:16:12;;;;;;;2.55;0.85;;;;;;;5.04;54.38;101062.70;1782776;79;21108;-66
2023/04/03 07:18:39;;;;;;;2.65;1.00;;;;;;;6.09;56.06;101060.44;1782480;79;21050;-67
2023/04/03 07:21:06;;;;;;;0.72;0.42;;;;;;;6.87;55.95;101057.13;1781628;79;21012;-66
2023/04/03 07:23:34;;;;;;;3.02;0.60;;;;;;;7.54;56.20;101061.11;1765329;79;21167;-66
2023/04/03 07:26:02;;;;;;;1.67;0.50;;;;;;;6.76;50.61;101069.81;1786555;79;21010;-67
2023/04/03 07:28:29;;;;;;;1.17;0.57;;;;;;;5.61;51.51;101073.66;1785022;79;21105;-65
2023/04/03 07:31:08;;;;;;;3.52;0.60;;;;;;;4.50;50.30;101074.86;1784064;79;21485;-64
2023/04/03 07:33:36;;;;;;;1.25;0.78;;;;;;;3.94;51.95;101086.03;1786584;79;21010;-65
2023/04/03 07:36:06;;;;;;;1.90;0.80;;;;;;;3.96;53.93;101071.41;1784544;79;21449;-67
2023/04/03 07:38:37;;;;;;;2.95;0.78;;;;;;;4.54;51.08;101096.00;1782915;80;20971;-66
2023/04/03 07:41:06;;;;;;;2.00;0.50;;;;;;;5.19;53.86;101079.05;1784990;79;20978;-68
2023/04/03 07:43:35;;;;;;;3.33;0.80;;;;;;;5.79;53.61;101085.65;1782571;79;21106;-67
2023/04/03 07:46:17;;;;;;;1.85;0.53;;;;;;;6.54;53.25;101080.83;1780312;79;21560;-66
2023/04/03 07:48:36;;;;;;;2.87;0.90;;;;;;;6.94;53.16;101080.84;1770428;79;21085;-63
2023/04/03 07:51:03;;;;;;;1.87;1.00;;;;;;;7.69;52.55;101077.78;1787301;79;21449;-65
2023/04/03 07:53:30;;;;;;;6.55;5.60;;;;;;;8.03;51.76;101069.48;1786871;78;21528;-63
2023/04/03 07:56:05;;;;;;;2.42;0.95;;;;;;;8.62;52.78;101072.88;1793065;78;20982;-66
2023/04/03 07:58:29;;;;;;;1.45;0.50;;;;;;;8.65;50.62;101078.03;1796420;78;21044;-67
2023/04/03 08:00:56;;;;;;;2.27;0.60;;;;;;;8.55;51.21;101076.49;1795209;78;20938;-65
2023/04/03 08:03:22;;;;;;;0.65;0.40;;;;;;;7.78;51.47;101077.64;1796229;78;21053;-64
2023/04/03 08:05:50;;;;;;;0.68;0.42;;;;;;;7.70;51.16;101083.42;1789966;78;20934;-67
2023/04/03 08:08:22;;;;;;;2.52;0.50;;;;;;;7.73;50.74;101058.67;1793586;78;20950;-68
2023/04/03 08:10:55;;;;;;;1.20;0.65;;;;;;;7.73;50.74;101058.67;1789308;79;21005;-67
2023/04/03 08:13:25;;;;;;;1.10;0.50;;;;;;;7.90;52.79;101084.84;1793260;79;21002;-67
2023/04/03 08:15:52;;;;;;;0.80;0.40;;;;;;;7.63;49.61;101080.47;1793037;79;21033;-67
2023/04/03 08:18:21;;;;;;;3.03;0.73;;;;;;;7.93;50.44;101076.59;1796349;78;20929;-67
2023/04/03 08:20:47;;;;;;;0.75;0.42;;;;;;;8.39;50.61;101075.88;1792963;79;21096;-65
2023/04/03 08:23:15;;;;;;;1.20;0.60;;;;;;;8.96;48.76;101047.52;1792032;79;20994;-66
2023/04/03 08:25:43;;;;;;;1.15;0.53;;;;;;;9.10;47.97;101069.39;1797389;79;21039;-65
2023/04/03 08:28:11;;;;;;;1.90;0.60;;;;;;;10.21;51.02;101078.28;1792574;78;21576;-65
2023/04/03 08:30:42;;;;;;;0.95;0.60;;;;;;;11.00;48.24;101053.63;1796959;78;21010;-66
2023/04/03 08:33:10;;;;;;;1.82;0.80;;;;;;;10.79;48.39;101061.63;1793796;78;20950;-67
2023/04/03 08:35:42;;;;;;;1.10;0.60;;;;;;;11.01;49.93;101061.88;1796826;79;21016;-67
2023/04/03 08:38:14;;;;;;;2.37;0.60;;;;;;;11.47;50.07;101072.34;1795275;78;21500;-65
2023/04/03 08:40:41;;;;;;;1.50;0.70;;;;;;;10.98;49.52;101075.45;1791138;78;21005;-66
2023/04/03 08:43:25;;;;;;;1.52;0.62;;;;;;;9.95;48.26;101073.69;1795853;78;21073;-67
2023/04/03 08:45:52;;;;;;;1.52;0.85;;;;;;;10.03;49.13;101076.52;1793341;78;21143;-67
2023/04/03 08:48:25;;;;;;;2.22;0.80;;;;;;;8.49;47.82;101070.09;1794186;79;20910;-66
2023/04/03 08:50:54;;;;;;;0.70;0.60;;;;;;;7.71;48.80;101084.27;1795261;78;21093;-64
2023/04/03 08:53:24;;;;;;;4.58;2.60;;;;;;;8.14;49.41;101068.88;1793365;78;20962;-67
2023/04/03 08:55:57;;;;;;;2.42;0.85;;;;;;;8.14;49.41;101068.88;1794142;78;20989;-66
2023/04/03 08:58:27;;;;;;;2.08;0.70;;;;;;;8.61;48.72;101072.92;1792481;78;21021;-65
2023/04/03 09:01:00;;;;;;;2.52;0.60;;;;;;;8.83;49.06;101081.21;1793384;78;21000;-65
2023/04/03 09:03:29;;;;;;;1.40;0.80;;;;;;;9.78;49.20;101062.33;1790426;79;21026;-67
2023/04/03 09:06:02;;;;;;;2.15;0.82;;;;;;;9.78;49.20;101062.33;1790792;78;21006;-66
2023/04/03 09:08:46;;;;;;;3.83;0.70;;;;;;;10.29;48.28;101075.07;1767607;78;21112;-67
2023/04/03 09:11:34;;;;;;;3.45;1.15;;;;;;;10.49;48.40;101071.50;1785246;78;21533;-68
2023/04/03 09:14:04;;;;;;;1.90;0.80;;;;;;;10.78;49.06;101071.64;1788364;78;20914;-67
2023/04/03 09:16:39;;;;;;;2.42;0.88;;;;;;;10.50;47.96;101081.08;1795060;78;21001;-67
2023/04/03 09:19:33;;;;;;;1.35;0.65;;;;;;;10.12;47.85;101087.64;1741220;81;21529;-67
2023/04/03 09:22:12;;;;;;;1.10;0.68;;;;;;;10.05;48.07;101081.27;1776849;79;20926;-67
2023/04/03 09:24:40;;;;;;;1.65;0.80;;;;;;;10.35;47.75;101081.44;1748151;81;21632;-68
2023/04/03 09:27:08;;;;;;;;;;;;;;;10.35;47.75;101081.44;1795328;78;21560;-66
2023/04/03 09:29:37;;;;;;;2.08;0.80;;;;;;;8.79;44.36;101073.02;1791674;78;20158;-65
2023/04/03 09:32:10;;;;;;;1.32;0.50;;;;;;;8.15;47.42;101100.54;1798541;78;20985;-63
2023/04/03 09:34:40;;;;;;;1.17;0.78;;;;;;;8.23;47.78;101080.47;1782490;78;20986;-64
2023/04/03 09:37:06;;;;;;;2.30;0.70;;;;;;;9.90;50.90;101084.21;1789960;78;21091;-69
2023/04/03 09:39:53;;;;;;;2.45;1.07;;;;;;;9.90;50.90;101084.21;1796286;78;21045;-67
2023/04/03 09:42:25;;;;;;;1.47;0.75;;;;;;;12.40;51.76;101067.27;1760927;78;21187;-66
2023/04/03 09:45:01;;;;;;;3.45;2.37;;;;;;;14.96;48.28;101067.48;1802132;78;20993;-67
2023/04/03 09:47:33;;;;;;;4.90;3.23;;;;;;;16.53;47.79;101062.73;1794454;78;20954;-68
2023/04/03 09:50:20;;;;;;;1.70;0.70;;;;;;;16.58;47.63;101050.62;1789621;78;21022;-67
2023/04/03 09:52:49;;;;;;;1.45;0.65;;;;;;;15.62;45.53;101058.35;1794865;78;21148;-68
2023/04/03 09:55:27;;;;;;;4.15;0.90;;;;;;;14.37;46.89;101062.10;1797447;78;21080;-65
2023/04/03 09:58:04;;;;;;;1.45;0.78;;;;;;;13.87;43.98;101065.89;1766903;80;21295;-68
2023/04/03 10:00:38;;;;;;;1.12;0.80;;;;;;;13.31;45.86;101063.67;1793986;78;20940;-67
2023/04/03 10:03:07;;;;;;;1.57;0.60;;;;;;;12.67;46.13;101061.55;1793340;78;22224;-67
2023/04/03 10:05:40;;;;;;;2.85;0.88;;;;;;;12.12;46.76;101064.23;1792557;78;21079;-66
2023/04/03 10:08:16;;;;;;;2.05;1.17;;;;;;;10.94;45.04;101065.97;1787154;78;21025;-66
2023/04/03 10:10:48;;;;;;;1.15;0.50;;;;;;;10.52;46.38;101074.03;1752119;78;21537;-66
2023/04/03 10:13:26;;;;;;;2.12;0.90;;;;;;;10.24;46.17;101072.98;1793847;78;20934;-66
2023/04/03 10:16:13;;;;;;;5.65;0.70;;;;;;;9.73;46.18;101090.26;1792714;78;21108;-66
2023/04/03 10:19:01;;;;;;;3.50;0.78;;;;;;;8.42;46.00;101082.78;1794040;78;20993;-66
2023/04/03 10:21:31;;;;;;;1.80;0.70;;;;;;;8.42;46.00;101082.78;1792883;79;21029;-67
2023/04/03 10:24:13;;;;;;;4.03;0.70;;;;;;;7.81;46.15;101082.83;1794836;78;21028;-67
2023/04/03 10:26:43;;;;;;;2.42;0.72;;;;;;;7.65;46.72;101074.82;1795717;78;21011;-65
2023/04/03 10:29:30;;;;;;;2.98;1.02;;;;;;;7.37;46.34;101076.47;1794400;79;21632;-66
2023/04/03 10:32:21;;;;;;;3.60;2.08;;;;;;;6.80;46.50;101074.08;1792838;78;21048;-65
2023/04/03 10:34:54;;;;;;;6.70;1.75;;;;;;;6.41;46.76;101080.95;1796060;78;20943;-62
2023/04/03 10:37:29;;;;;;;1.85;0.65;;;;;;;5.90;46.64;101075.22;1799680;78;20997;-62
2023/04/03 10:40:04;;;;;;;1.37;0.88;;;;;;;5.38;46.96;101081.55;1776102;79;21072;-62
2023/04/03 10:42:37;;;;;;;3.10;0.90;;;;;;;5.42;47.35;101074.63;1797673;78;21635;-63
2023/04/03 10:45:27;;;;;;;6.65;1.30;;;;;;;5.84;47.79;101077.86;1796911;78;21040;-63
2023/04/03 10:48:19;;;;;;;5.05;1.30;;;;;;;7.42;48.78;101075.54;1798984;78;20970;-63
2023/04/03 10:51:17;;;;;;;1.42;0.60;;;;;;;8.59;45.28;101069.48;1799878;78;21418;-64
2023/04/03 10:53:57;;;;;;;3.15;1.17;;;;;;;8.56;46.20;101067.78;1734421;80;21068;-62
2023/04/03 10:56:42;;;;;;;1.95;1.00;;;;;;;8.29;45.99;101056.94;1768453;80;20998;-63
2023/04/03 10:59:19;;;;;;;3.35;1.47;;;;;;;7.92;46.32;101071.39;1764621;80;21476;-62
2023/04/03 11:01:48;;;;;;;2.02;1.07;;;;;;;7.59;46.50;101068.41;1764168;80;21181;-62
2023/04/03 11:04:23;;;;;;;4.15;2.15;;;;;;;7.55;47.15;101064.97;1714655;82;21068;-63
2023/04/03 11:06:53;;;;;;;12.40;3.20;;;;;;;7.67;46.75;101079.53;1758731;80;21040;-61
2023/04/03 11:09:26;;;;;;;3.22;1.75;;;;;;;7.59;47.19;101073.61;1769327;80;21028;-61
2023/04/03 11:11:59;;;;;;;5.08;2.30;;;;;;;7.55;47.02;101072.77;1766930;80;21118;-60
2023/04/03 11:14:31;;;;;;;4.30;2.30;;;;;;;7.63;47.33;101072.22;1767652;80;21037;-61
2023/04/03 11:17:16;;;;;;;5.35;1.57;;;;;;;7.73;47.29;101076.88;1765576;79;21025;-62
2023/04/03 11:19:55;;;;;;;2.10;0.93;;;;;;;7.83;46.74;101072.39;1753233;80;21072;-62
2023/04/03 11:22:36;;;;;;;1.75;0.65;;;;;;;7.83;47.26;101070.64;1768886;80;21069;-61
2023/04/03 11:25:15;;;;;;;4.90;1.05;;;;;;;7.69;46.10;101067.37;1767331;80;20934;-62
2023/04/03 11:27:51;;;;;;;1.65;0.72;;;;;;;7.15;45.87;101073.27;1768133;80;21080;-60
2023/04/03 11:30:41;;;;;;;6.45;5.08;;;;;;;6.49;46.20;101072.62;1767794;80;21069;-60
2023/04/03 11:33:11;;;;;;;3.15;1.57;;;;;;;6.56;47.25;101076.49;1710895;83;20978;-59
2023/04/03 11:35:40;;;;;;;1.37;1.05;;;;;;;9.04;46.24;101056.04;1668637;83;21201;-60
2023/04/03 11:38:08;;;;;;;0.88;0.50;;;;;;;10.72;47.52;101051.77;1704440;83;21064;-60
2023/04/03 11:40:38;;;;;;;0.68;0.40;;;;;;;10.27;43.37;101046.83;1707071;83;21072;-61
2023/04/03 11:43:26;;;;;;;3.83;0.60;;;;;;;9.47;45.39;101052.58;1704900;83;21080;-60
2023/04/03 11:46:04;;;;;;;1.00;0.70;;;;;;;9.30;45.25;101058.56;1701566;83;21037;-60
2023/04/03 11:48:37;;;;;;;2.62;0.75;;;;;;;9.27;47.09;101061.23;1699407;83;21069;-61